KBBD/BBD METAR and TAF weather

Enter ICAO airport designator
Station Type Date Time Source
KBBD METAR 2020/01/21 21:35 UTC NOAA

KBBD 212135Z AUTO 15015G22KT 10SM SCT055 OVC085 13/M03 A3023 RMK AO2


Station Type Date Time Source
KBBD Decoded METAR 2020/01/21 21:35 UTC NOAA

Brady, Curtis Field Airport, TX, United States (KBBD) 31-10-45N 099-19-26W
Jan 21, 2020 - 04:35 PM EST / 2020.01.21 2135 UTC
Wind: from the SSE (150 degrees) at 17 MPH (15 KT) gusting to 25 MPH (22 KT):0
Visibility: 10 mile(s):0
Sky conditions: overcast
Temperature: 55 F (13 C)
Dew Point: 26 F (-3 C)
Relative Humidity: 32%
Pressure (altimeter): 30.23 in. Hg (1023 hPa)
ob: KBBD 212135Z AUTO 15015G22KT 10SM SCT055 OVC085 13/M03 A3023 RMK AO2
cycle: 21

Station Type Date Time Source
KBBD TAF 2020/01/21 18:22 UTC NOAA

TAF KBBD 211720Z 2118/2218 15011G18KT P6SM OVC100
FM220300 16012G18KT P6SM -RA OVC025
FM220700 16012G18KT 6SM BR VCSH OVC007

Example: see airport list